Time;durP1;ratioP1;P1;durP2;ratioP2;P2;SDS_P1;SDS_P2;PMS_P1;PMS_P2;Temp;Humidity;BMP_temperature;BMP_pressure;BME280_temperature;BME280_humidity;BME280_pressure;Samples;Min_cycle;Max_cycle;Signal;HPM_P1;HPM_P2
2022/01/08 00:02:13;;;;;;;17.05;2.38;;;5.10;99.90;;;;;;5105075;28;20205;-73
2022/01/08 00:04:38;;;;;;;11.32;2.10;;;5.10;99.90;;;;;;5104420;28;20258;-72
2022/01/08 00:07:04;;;;;;;13.05;2.90;;;5.10;99.90;;;;;;5091951;28;20431;-73
2022/01/08 00:09:29;;;;;;;12.97;3.10;;;5.50;99.90;;;;;;5109276;27;20396;-73
2022/01/08 00:11:55;;;;;;;14.00;2.47;;;5.80;99.70;;;;;;5095808;28;21117;-73
2022/01/08 00:14:22;;;;;;;13.20;2.73;;;6.00;99.10;;;;;;5106060;28;20499;-72
2022/01/08 00:16:48;;;;;;;17.83;2.72;;;6.20;98.60;;;;;;5108395;27;20473;-73
2022/01/08 00:19:14;;;;;;;15.93;2.70;;;6.30;98.40;;;;;;5110221;27;20408;-73
2022/01/08 00:21:40;;;;;;;17.85;2.45;;;6.40;98.30;;;;;;5113028;27;20209;-73
2022/01/08 00:24:05;;;;;;;20.58;2.83;;;6.10;98.70;;;;;;5089219;28;20184;-74
2022/01/08 00:26:31;;;;;;;13.88;2.45;;;5.90;99.10;;;;;;5115900;27;20272;-73
2022/01/08 00:28:57;;;;;;;14.40;1.83;;;5.80;99.40;;;;;;5103656;27;20177;-73
2022/01/08 00:31:22;;;;;;;11.13;2.22;;;5.70;99.50;;;;;;5107769;27;20189;-73
2022/01/08 00:33:48;;;;;;;18.05;2.45;;;5.70;99.60;;;;;;5105648;28;20188;-73
2022/01/08 00:36:14;;;;;;;12.05;2.20;;;5.60;99.90;;;;;;5106442;28;20188;-74
2022/01/08 00:38:40;;;;;;;15.90;1.95;;;5.60;99.70;;;;;;5105431;28;20181;-74
2022/01/08 00:41:05;;;;;;;12.93;2.00;;;5.60;99.70;;;;;;5107305;28;20189;-73
2022/01/08 00:43:31;;;;;;;10.10;1.80;;;5.60;99.70;;;;;;5107034;28;20192;-72
2022/01/08 00:45:57;;;;;;;10.63;2.28;;;5.60;99.70;;;;;;5111712;27;20184;-72
2022/01/08 00:48:23;;;;;;;14.52;2.00;;;5.60;99.70;;;;;;5118047;27;20191;-72
2022/01/08 00:50:50;;;;;;;16.20;2.22;;;5.50;99.60;;;;;;5105618;28;20185;-71
2022/01/08 00:53:16;;;;;;;11.40;2.08;;;5.50;99.70;;;;;;5108522;27;20177;-73
2022/01/08 00:55:41;;;;;;;12.98;2.13;;;5.50;99.70;;;;;;5102457;28;21304;-75
2022/01/08 00:58:07;;;;;;;16.15;2.00;;;5.50;99.70;;;;;;5106763;28;20227;-73
2022/01/08 01:00:33;;;;;;;10.50;1.90;;;5.50;99.70;;;;;;5105181;28;20268;-74
2022/01/08 01:02:58;;;;;;;14.07;1.83;;;5.50;99.80;;;;;;5106132;28;20681;-73
2022/01/08 01:05:24;;;;;;;5.35;1.63;;;5.50;99.90;;;;;;5138345;27;20185;-73
2022/01/08 01:07:49;;;;;;;13.43;1.90;;;5.50;99.90;;;;;;5110349;28;20233;-72
2022/01/08 01:10:17;;;;;;;10.32;1.83;;;5.50;99.90;;;;;;5110637;28;20172;-75
2022/01/08 01:12:43;;;;;;;14.55;2.33;;;5.50;99.90;;;;;;5101625;27;20189;-74
2022/01/08 01:15:11;;;;;;;12.00;1.85;;;5.50;99.90;;;;;;5104268;28;20204;-74
2022/01/08 01:17:37;;;;;;;9.45;2.20;;;5.50;99.90;;;;;;5107509;28;20185;-72
2022/01/08 01:20:05;;;;;;;11.52;1.80;;;5.50;99.90;;;;;;5105316;27;20325;-74
2022/01/08 01:22:41;;;;;;;16.65;2.00;;;5.40;99.90;;;;;;5105583;28;20208;-72
2022/01/08 01:25:09;;;;;;;14.77;2.00;;;5.40;99.90;;;;;;5101980;28;20193;-75
2022/01/08 01:30:28;;;;;;;7.65;1.58;;;5.40;99.90;;;;;;5102970;28;20263;-74
2022/01/08 01:42:08;;;;;;;6.85;1.27;;;5.50;99.90;;;;;;5104795;28;20200;-74
2022/01/08 01:49:11;;;;;;;5.50;1.10;;;5.50;99.90;;;;;;5106059;28;20186;-72
2022/01/08 01:51:37;;;;;;;5.03;1.00;;;5.50;99.90;;;;;;5107489;28;20703;-72
2022/01/08 01:54:03;;;;;;;7.22;1.70;;;5.50;99.90;;;;;;5104309;28;20902;-74
2022/01/08 01:56:28;;;;;;;4.38;1.30;;;5.50;99.90;;;;;;5104781;28;20273;-73
2022/01/08 01:58:55;;;;;;;7.78;1.45;;;5.40;99.90;;;;;;5120268;27;20268;-75
2022/01/08 02:01:21;;;;;;;12.07;1.70;;;5.50;99.90;;;;;;5106642;28;20220;-74
2022/01/08 02:03:47;;;;;;;9.55;1.70;;;5.40;99.90;;;;;;5105430;28;20406;-73
2022/01/08 02:06:13;;;;;;;9.20;1.90;;;5.80;99.90;;;;;;5108322;27;20439;-74
2022/01/08 02:08:39;;;;;;;8.37;1.67;;;6.10;99.90;;;;;;5109093;27;20880;-74
2022/01/08 02:11:06;;;;;;;12.98;1.90;;;6.30;99.90;;;;;;5112188;27;20419;-74
2022/01/08 02:13:32;;;;;;;12.30;2.10;;;6.40;99.90;;;;;;5089783;28;20419;-73
2022/01/08 02:16:00;;;;;;;16.40;2.00;;;6.50;99.90;;;;;;5111221;28;20443;-73
2022/01/08 02:18:27;;;;;;;15.45;2.17;;;6.20;99.90;;;;;;5109742;28;20193;-73
2022/01/08 02:20:58;;;;;;;14.23;1.75;;;6.00;99.90;;;;;;5108807;28;20204;-73
2022/01/08 02:23:24;;;;;;;18.60;2.15;;;5.80;99.90;;;;;;5091667;28;20288;-73
2022/01/08 02:25:50;;;;;;;10.20;1.75;;;5.70;99.90;;;;;;5127048;27;20629;-73
2022/01/08 02:28:17;;;;;;;14.55;2.53;;;5.70;99.90;;;;;;5107234;27;20185;-75
2022/01/08 02:30:43;;;;;;;10.52;2.20;;;5.60;99.90;;;;;;5110869;27;20589;-73
2022/01/08 02:33:08;;;;;;;9.63;1.77;;;5.60;99.90;;;;;;5125459;27;20197;-74
2022/01/08 02:35:34;;;;;;;6.47;1.67;;;5.50;99.90;;;;;;5113968;27;20188;-73
2022/01/08 02:38:00;;;;;;;14.55;2.10;;;5.40;99.90;;;;;;5106604;27;20185;-74
2022/01/08 02:40:26;;;;;;;14.73;1.58;;;5.40;99.90;;;;;;5110963;27;20664;-72
2022/01/08 02:43:02;;;;;;;5.03;1.58;;;5.40;99.90;;;;;;5110298;28;20233;-71
2022/01/08 02:45:29;;;;;;;7.90;1.48;;;5.30;99.90;;;;;;5110734;28;20196;-72
2022/01/08 02:47:55;;;;;;;7.03;1.70;;;5.30;99.90;;;;;;5110208;28;20195;-72
2022/01/08 02:50:22;;;;;;;11.05;1.60;;;5.20;99.90;;;;;;5107622;27;20177;-73
2022/01/08 02:52:48;;;;;;;10.05;1.60;;;5.10;99.90;;;;;;5112208;27;20181;-73
2022/01/08 02:55:16;;;;;;;8.85;1.80;;;5.10;99.90;;;;;;5106618;28;20575;-75
2022/01/08 02:57:42;;;;;;;15.73;2.38;;;5.00;99.90;;;;;;5111203;27;20465;-72
2022/01/08 03:00:12;;;;;;;12.02;2.42;;;5.40;99.90;;;;;;5109058;27;21157;-73
2022/01/08 03:02:46;;;;;;;17.20;2.60;;;5.70;99.90;;;;;;5107493;27;20793;-72
2022/01/08 03:05:12;;;;;;;15.45;2.60;;;6.00;99.90;;;;;;5113647;27;20466;-72
2022/01/08 03:07:39;;;;;;;17.27;2.87;;;6.10;99.90;;;;;;5123453;27;20400;-74
2022/01/08 03:10:10;;;;;;;15.52;2.72;;;6.20;99.90;;;;;;5110736;27;20415;-74
2022/01/08 03:12:40;;;;;;;16.93;2.80;;;6.30;99.90;;;;;;5108646;27;20428;-72
2022/01/08 03:15:07;;;;;;;18.10;2.80;;;6.30;99.90;;;;;;5112987;27;20419;-72
2022/01/08 03:17:33;;;;;;;13.20;2.42;;;6.40;99.90;;;;;;5108055;28;20243;-73
2022/01/08 03:20:06;;;;;;;15.48;2.50;;;6.00;99.90;;;;;;5109810;27;20193;-72
2022/01/08 03:22:32;;;;;;;12.88;2.03;;;5.70;99.90;;;;;;5108227;28;20212;-72
2022/01/08 03:24:58;;;;;;;8.50;1.98;;;5.60;99.90;;;;;;5113618;27;20191;-72
2022/01/08 03:27:24;;;;;;;10.30;1.63;;;5.40;99.90;;;;;;5106751;28;20189;-74
2022/01/08 03:29:50;;;;;;;11.30;2.08;;;5.30;99.90;;;;;;5096195;28;20186;-74
2022/01/08 03:32:16;;;;;;;13.10;1.92;;;5.20;99.90;;;;;;5108102;27;20181;-74
2022/01/08 03:34:41;;;;;;;10.95;1.95;;;5.10;99.90;;;;;;5114678;27;20193;-73
2022/01/08 03:37:07;;;;;;;7.38;1.45;;;5.00;99.90;;;;;;5104224;28;20192;-74
2022/01/08 03:39:33;;;;;;;16.55;2.25;;;4.90;99.90;;;;;;5108084;27;20181;-73
2022/01/08 03:41:58;;;;;;;9.27;1.73;;;4.90;99.90;;;;;;5109466;27;20294;-73
2022/01/08 03:44:24;;;;;;;9.80;1.55;;;4.90;99.90;;;;;;5106873;27;20181;-72
2022/01/08 03:46:50;;;;;;;8.02;1.33;;;4.90;99.90;;;;;;5107363;28;20642;-74
2022/01/08 03:49:25;;;;;;;6.22;1.15;;;4.80;99.90;;;;;;5107544;27;20434;-73
2022/01/08 03:51:53;;;;;;;8.07;2.00;;;5.20;99.90;;;;;;5111766;27;20412;-74
2022/01/08 03:54:19;;;;;;;9.38;2.15;;;5.50;99.90;;;;;;5106640;27;20444;-73
2022/01/08 03:56:45;;;;;;;7.78;1.88;;;5.80;99.90;;;;;;5108503;27;20477;-72
2022/01/08 03:59:11;;;;;;;10.33;1.70;;;5.80;99.90;;;;;;5107225;27;20416;-73
2022/01/08 04:01:36;;;;;;;5.72;1.70;;;5.90;99.90;;;;;;5089825;28;20469;-74
2022/01/08 04:04:02;;;;;;;7.50;1.63;;;6.00;99.90;;;;;;5106135;28;20404;-73
2022/01/08 04:06:27;;;;;;;8.73;1.77;;;6.00;99.90;;;;;;5105512;27;20408;-73
2022/01/08 04:08:57;;;;;;;10.03;2.00;;;6.10;99.90;;;;;;5104255;28;20409;-75
2022/01/08 04:11:24;;;;;;;9.95;1.95;;;6.10;99.90;;;;;;5107413;27;20479;-75
2022/01/08 04:13:50;;;;;;;8.55;2.28;;;6.10;99.90;;;;;;5104130;28;20413;-75
2022/01/08 04:16:21;;;;;;;11.13;2.23;;;6.00;99.90;;;;;;5106469;27;20408;-73
2022/01/08 04:18:46;;;;;;;7.97;1.50;;;6.10;99.90;;;;;;5105110;28;20397;-75
2022/01/08 04:23:40;;;;;;;10.98;1.80;;;6.00;99.90;;;;;;5104230;27;20402;-73
2022/01/08 04:26:06;;;;;;;12.50;2.20;;;6.00;99.90;;;;;;5092044;28;20892;-73
2022/01/08 04:28:32;;;;;;;9.77;1.93;;;6.00;99.90;;;;;;5106470;27;20410;-75
2022/01/08 04:30:57;;;;;;;10.05;2.05;;;6.00;99.90;;;;;;5114991;27;20390;-74
2022/01/08 04:33:23;;;;;;;12.93;2.00;;;5.90;99.90;;;;;;5108382;27;20418;-74
2022/01/08 04:35:48;;;;;;;10.27;2.10;;;6.00;99.90;;;;;;5114318;27;20400;-74
2022/01/08 04:38:14;;;;;;;11.77;2.70;;;6.00;99.90;;;;;;5116194;27;20905;-73
2022/01/08 04:40:40;;;;;;;10.00;2.40;;;5.90;99.90;;;;;;5103882;28;20404;-73
2022/01/08 04:43:06;;;;;;;11.60;2.15;;;5.90;99.90;;;;;;5107085;27;20935;-73
2022/01/08 04:45:32;;;;;;;11.27;2.40;;;5.90;99.90;;;;;;5109372;27;20404;-73
2022/01/08 04:47:59;;;;;;;12.15;2.10;;;5.90;99.90;;;;;;5105350;27;20484;-73
2022/01/08 04:50:26;;;;;;;13.00;2.67;;;5.90;99.90;;;;;;5092308;28;20411;-75
2022/01/08 04:52:52;;;;;;;14.53;2.30;;;5.90;99.90;;;;;;5106694;28;20908;-74
2022/01/08 04:55:18;;;;;;;10.52;2.17;;;5.90;99.90;;;;;;5104023;28;20499;-73
2022/01/08 04:57:44;;;;;;;14.10;2.75;;;5.90;99.90;;;;;;5104950;28;20500;-73
2022/01/08 05:00:10;;;;;;;12.85;2.75;;;5.90;99.90;;;;;;5111257;28;20841;-73
2022/01/08 05:02:35;;;;;;;13.70;2.63;;;5.90;99.90;;;;;;5106668;28;20947;-73
2022/01/08 05:05:01;;;;;;;15.17;2.83;;;5.90;99.90;;;;;;5111372;28;20497;-74
2022/01/08 05:07:27;;;;;;;13.43;2.60;;;5.90;99.90;;;;;;5111179;28;20398;-74
2022/01/08 05:09:53;;;;;;;18.33;2.70;;;5.90;99.90;;;;;;5116488;28;20398;-73
2022/01/08 05:12:18;;;;;;;13.55;2.72;;;6.00;99.90;;;;;;5105564;28;20901;-74
2022/01/08 05:14:44;;;;;;;14.60;2.97;;;6.00;99.90;;;;;;5106562;28;20955;-73
2022/01/08 05:17:13;;;;;;;16.85;2.75;;;6.00;99.90;;;;;;5102401;28;20496;-72
2022/01/08 05:19:49;;;;;;;13.77;2.80;;;6.10;99.90;;;;;;5102292;28;20884;-73
2022/01/08 05:22:23;;;;;;;13.77;2.78;;;6.10;99.90;;;;;;5105038;28;20530;-73
2022/01/08 05:24:50;;;;;;;15.35;3.35;;;6.10;99.90;;;;;;5111395;28;20912;-73
2022/01/08 05:27:18;;;;;;;16.60;2.85;;;6.10;99.90;;;;;;5102641;28;20496;-74
2022/01/08 05:29:45;;;;;;;15.68;2.80;;;6.10;99.90;;;;;;5090527;28;20826;-73
2022/01/08 05:32:17;;;;;;;14.68;2.63;;;6.10;99.90;;;;;;5108660;28;21151;-73
2022/01/08 05:34:45;;;;;;;11.68;2.58;;;6.10;99.90;;;;;;5108020;28;20495;-73
2022/01/08 05:37:11;;;;;;;14.77;2.20;;;6.10;99.90;;;;;;5100609;28;20903;-73
2022/01/08 05:39:37;;;;;;;13.77;2.63;;;6.00;99.90;;;;;;5101516;28;20428;-73
2022/01/08 05:42:03;;;;;;;13.07;2.47;;;6.00;99.90;;;;;;5102039;27;21026;-74
2022/01/08 05:44:29;;;;;;;13.35;2.70;;;6.00;99.90;;;;;;5102220;27;20421;-73
2022/01/08 05:46:54;;;;;;;12.68;2.67;;;6.10;99.90;;;;;;5109317;28;20424;-73
2022/01/08 05:49:20;;;;;;;12.77;2.60;;;6.10;99.90;;;;;;5108040;27;20911;-73
2022/01/08 05:51:46;;;;;;;12.30;2.40;;;6.10;99.90;;;;;;5109832;27;20419;-73
2022/01/08 05:54:11;;;;;;;13.10;2.53;;;6.10;99.90;;;;;;5112591;27;20415;-73
2022/01/08 05:56:37;;;;;;;13.90;2.57;;;6.10;99.90;;;;;;5108293;28;20836;-74
2022/01/08 05:59:03;;;;;;;12.90;2.60;;;6.10;99.90;;;;;;5108229;27;20422;-72
2022/01/08 06:01:28;;;;;;;12.83;2.77;;;6.10;99.90;;;;;;5108083;27;20407;-74
2022/01/08 06:03:54;;;;;;;8.65;2.47;;;6.10;99.90;;;;;;5105403;27;20498;-73
2022/01/08 06:06:20;;;;;;;13.73;3.07;;;6.20;99.90;;;;;;5108308;27;20915;-74
2022/01/08 06:08:45;;;;;;;13.45;2.85;;;6.20;99.90;;;;;;5108311;27;20483;-73
2022/01/08 06:11:11;;;;;;;9.82;2.35;;;6.20;99.90;;;;;;5109171;27;20455;-74
2022/01/08 06:13:37;;;;;;;11.77;2.20;;;6.20;99.80;;;;;;5104836;27;20491;-75
2022/01/08 06:16:03;;;;;;;11.30;2.10;;;6.20;99.60;;;;;;5107936;27;20411;-75
2022/01/08 06:18:28;;;;;;;12.93;2.40;;;6.20;99.40;;;;;;5112401;27;20496;-74
2022/01/08 06:20:55;;;;;;;10.20;2.40;;;6.20;99.50;;;;;;5107485;27;20415;-74
2022/01/08 06:23:22;;;;;;;12.35;2.63;;;6.30;99.50;;;;;;5107012;27;20435;-76
2022/01/08 06:25:48;;;;;;;12.40;2.75;;;6.30;99.60;;;;;;5111925;27;21005;-74
2022/01/08 06:28:13;;;;;;;10.65;2.20;;;6.30;99.50;;;;;;5089750;28;20491;-74
2022/01/08 06:30:39;;;;;;;9.87;2.33;;;6.30;99.40;;;;;;5118554;27;20799;-75
2022/01/08 06:33:04;;;;;;;13.70;2.60;;;6.30;99.30;;;;;;5106267;28;20412;-75
2022/01/08 06:35:30;;;;;;;13.60;2.63;;;6.30;99.50;;;;;;5106573;27;20484;-74
2022/01/08 06:37:56;;;;;;;12.93;2.80;;;6.20;99.60;;;;;;5107708;28;20422;-74
2022/01/08 06:40:21;;;;;;;12.80;2.70;;;6.20;99.70;;;;;;5106021;28;20416;-75
2022/01/08 06:42:47;;;;;;;9.27;2.40;;;6.30;99.90;;;;;;5106935;27;20754;-74
2022/01/08 06:45:13;;;;;;;8.90;2.20;;;6.20;99.80;;;;;;5109391;27;20418;-76
2022/01/08 06:47:38;;;;;;;14.48;2.55;;;6.20;99.90;;;;;;5115790;27;20406;-73
2022/01/08 06:50:04;;;;;;;10.50;2.30;;;6.20;99.90;;;;;;5107618;27;20763;-73
2022/01/08 06:52:33;;;;;;;11.03;2.20;;;6.20;99.90;;;;;;5088634;28;20400;-73
2022/01/08 06:54:58;;;;;;;10.27;2.70;;;6.30;99.90;;;;;;5110207;27;20412;-73
2022/01/08 06:57:24;;;;;;;14.57;2.65;;;6.30;99.90;;;;;;5103934;27;20415;-74
2022/01/08 06:59:49;;;;;;;15.93;2.60;;;6.30;99.90;;;;;;5104250;27;20412;-73
2022/01/08 07:02:15;;;;;;;12.45;2.30;;;6.30;99.90;;;;;;5103666;28;20475;-74
2022/01/08 07:04:41;;;;;;;13.17;2.37;;;6.30;99.90;;;;;;5105425;28;20491;-74
2022/01/08 07:07:06;;;;;;;11.15;2.40;;;6.30;99.90;;;;;;5110626;27;20922;-73
2022/01/08 07:09:32;;;;;;;10.20;2.70;;;6.30;99.90;;;;;;5136685;27;21118;-76
2022/01/08 07:11:58;;;;;;;12.85;2.67;;;6.20;99.90;;;;;;5110584;27;20403;-73
2022/01/08 07:14:23;;;;;;;9.47;2.30;;;6.30;99.80;;;;;;5107631;27;20910;-72
2022/01/08 07:16:50;;;;;;;10.98;2.22;;;6.30;99.90;;;;;;5113653;27;20408;-71
2022/01/08 07:19:15;;;;;;;14.20;2.70;;;6.20;99.70;;;;;;5104852;27;20876;-73
2022/01/08 07:21:41;;;;;;;10.02;2.38;;;6.30;99.70;;;;;;5106094;28;20464;-73
2022/01/08 07:24:07;;;;;;;10.68;2.15;;;6.30;99.70;;;;;;5104344;27;20499;-72
2022/01/08 07:26:32;;;;;;;13.27;2.63;;;6.30;99.90;;;;;;5104922;27;20820;-73
2022/01/08 07:28:58;;;;;;;13.23;2.25;;;6.30;99.50;;;;;;5107588;27;20485;-73
2022/01/08 07:31:23;;;;;;;10.40;2.20;;;6.40;99.40;;;;;;5105555;28;20469;-71
2022/01/08 07:33:49;;;;;;;12.77;2.40;;;6.40;99.40;;;;;;5086891;28;20461;-72
2022/01/08 07:36:20;;;;;;;9.20;2.23;;;6.40;99.30;;;;;;5110861;27;20408;-74
2022/01/08 07:38:47;;;;;;;9.20;1.98;;;6.40;99.30;;;;;;5107106;27;20404;-73
2022/01/08 07:41:12;;;;;;;10.63;1.92;;;6.40;99.30;;;;;;5113258;27;20449;-71
2022/01/08 07:43:39;;;;;;;9.65;1.98;;;6.40;99.40;;;;;;5105370;27;20396;-73
2022/01/08 07:46:05;;;;;;;14.52;2.33;;;6.50;99.60;;;;;;5104438;27;21099;-71
2022/01/08 07:48:30;;;;;;;10.80;2.38;;;6.50;99.60;;;;;;5097346;28;20446;-71
2022/01/08 07:50:56;;;;;;;11.80;2.00;;;6.50;99.70;;;;;;5107501;28;20260;-71
2022/01/08 07:53:22;;;;;;;19.65;2.40;;;6.20;99.90;;;;;;5111813;27;20213;-72
2022/01/08 07:55:48;;;;;;;12.07;2.47;;;5.90;99.90;;;;;;5106093;27;20193;-70
2022/01/08 07:58:13;;;;;;;12.77;2.22;;;5.70;99.90;;;;;;5100112;28;20197;-72
2022/01/08 08:00:39;;;;;;;19.20;2.88;;;5.50;99.90;;;;;;5103905;28;20781;-71
2022/01/08 08:03:04;;;;;;;13.35;2.25;;;5.40;99.90;;;;;;5102227;28;20300;-70
2022/01/08 08:05:31;;;;;;;10.40;2.75;;;5.20;99.90;;;;;;5121330;27;20548;-71
2022/01/08 08:07:57;;;;;;;12.32;3.00;;;5.10;99.90;;;;;;5108374;28;20234;-71
2022/01/08 08:10:25;;;;;;;19.88;2.97;;;5.00;99.90;;;;;;5105913;27;20699;-72
2022/01/08 08:12:53;;;;;;;10.52;3.00;;;5.00;99.90;;;;;;5106015;27;20419;-72
2022/01/08 08:15:20;;;;;;;12.43;3.60;;;5.20;99.90;;;;;;5106054;27;20465;-69
2022/01/08 08:17:45;;;;;;;14.27;3.43;;;5.50;99.90;;;;;;5104013;28;20400;-72
2022/01/08 08:20:12;;;;;;;10.35;3.25;;;5.70;99.90;;;;;;5105252;27;20519;-70
2022/01/08 08:22:39;;;;;;;12.05;3.28;;;5.80;99.90;;;;;;5106493;28;20472;-71
2022/01/08 08:25:06;;;;;;;13.23;3.38;;;5.80;99.90;;;;;;5105567;27;20803;-71
2022/01/08 08:27:32;;;;;;;11.07;3.35;;;5.90;99.90;;;;;;5089338;27;20408;-71
2022/01/08 08:29:57;;;;;;;11.82;3.60;;;5.90;99.90;;;;;;5103914;28;20496;-71
2022/01/08 08:32:23;;;;;;;9.20;3.33;;;6.00;99.90;;;;;;5106647;28;20463;-71
2022/01/08 08:34:51;;;;;;;16.90;3.65;;;6.00;99.90;;;;;;5101031;27;20412;-71
2022/01/08 08:37:17;;;;;;;12.90;3.80;;;6.00;99.90;;;;;;5104215;28;20415;-72
2022/01/08 08:39:43;;;;;;;16.70;3.67;;;6.00;99.90;;;;;;5111585;27;20967;-72
2022/01/08 08:42:08;;;;;;;13.05;3.92;;;6.00;99.90;;;;;;5107307;27;20477;-73
2022/01/08 08:44:34;;;;;;;11.23;3.90;;;6.00;99.90;;;;;;5103879;27;21016;-73
2022/01/08 08:47:00;;;;;;;12.35;4.00;;;6.00;99.90;;;;;;5109866;27;21283;-72
2022/01/08 08:49:26;;;;;;;14.45;3.92;;;6.00;99.90;;;;;;5105009;27;20407;-73
2022/01/08 08:51:53;;;;;;;13.20;3.72;;;6.00;99.90;;;;;;5111316;27;20406;-73
2022/01/08 08:54:19;;;;;;;14.60;3.75;;;6.00;99.90;;;;;;5106302;28;20919;-72
2022/01/08 08:56:45;;;;;;;18.23;4.25;;;6.00;99.90;;;;;;5104382;28;20411;-73
2022/01/08 08:59:11;;;;;;;11.57;3.80;;;6.00;99.90;;;;;;5106155;28;20453;-74
2022/01/08 09:01:37;;;;;;;15.35;3.88;;;6.10;99.90;;;;;;5105889;27;20412;-74
2022/01/08 09:04:03;;;;;;;12.07;3.53;;;6.10;99.90;;;;;;5102870;28;20802;-73
2022/01/08 09:06:30;;;;;;;16.50;3.90;;;6.10;99.90;;;;;;5111216;28;20483;-74
2022/01/08 09:08:56;;;;;;;14.35;3.55;;;6.10;99.90;;;;;;5102273;28;20403;-74
2022/01/08 09:11:22;;;;;;;13.83;3.70;;;6.10;99.90;;;;;;5105403;28;20408;-70
2022/01/08 09:13:49;;;;;;;14.93;3.80;;;6.10;99.90;;;;;;5104937;28;20421;-73
2022/01/08 09:16:15;;;;;;;14.10;4.03;;;6.10;99.90;;;;;;5115623;27;20400;-73
2022/01/08 09:18:41;;;;;;;12.27;4.55;;;6.10;99.90;;;;;;5114664;27;20479;-70
2022/01/08 09:21:07;;;;;;;12.57;3.75;;;6.10;99.90;;;;;;5113846;27;20945;-70
2022/01/08 09:23:33;;;;;;;11.95;3.95;;;6.10;99.90;;;;;;5114656;27;20428;-71
2022/01/08 09:26:00;;;;;;;11.15;3.50;;;6.10;99.90;;;;;;5116050;27;20453;-72
2022/01/08 09:28:27;;;;;;;14.73;3.60;;;6.10;99.90;;;;;;5107662;27;20787;-72
2022/01/08 09:30:54;;;;;;;17.65;4.05;;;6.20;99.90;;;;;;5111366;27;20402;-72
2022/01/08 09:33:20;;;;;;;12.80;3.78;;;6.20;99.90;;;;;;5112071;27;20776;-71
2022/01/08 09:35:46;;;;;;;15.88;3.97;;;6.10;99.90;;;;;;5108528;27;20404;-70
2022/01/08 09:38:12;;;;;;;14.00;3.83;;;6.10;99.90;;;;;;5109326;28;20411;-73
2022/01/08 09:40:38;;;;;;;13.90;3.80;;;6.10;99.90;;;;;;5115271;27;20410;-71
2022/01/08 09:43:04;;;;;;;13.30;4.10;;;6.10;99.90;;;;;;5108786;27;20788;-71
2022/01/08 09:45:30;;;;;;;15.57;4.20;;;6.20;99.90;;;;;;5106575;27;20407;-73
2022/01/08 09:47:55;;;;;;;15.65;4.53;;;6.20;99.90;;;;;;5112589;27;20683;-71
2022/01/08 09:50:21;;;;;;;15.15;4.28;;;5.80;99.90;;;;;;5109097;27;20241;-70
2022/01/08 09:52:47;;;;;;;11.48;4.68;;;5.50;99.90;;;;;;5110761;27;20624;-73
2022/01/08 09:55:13;;;;;;;15.73;5.10;;;5.30;99.90;;;;;;5108170;27;20226;-71
2022/01/08 09:57:38;;;;;;;11.27;5.28;;;5.10;99.90;;;;;;5108447;27;20181;-71
2022/01/08 10:00:13;;;;;;;22.65;5.80;;;5.00;99.90;;;;;;5109585;27;20234;-72
2022/01/08 10:02:39;;;;;;;17.88;6.47;;;4.90;99.90;;;;;;5114607;27;20208;-71
2022/01/08 10:05:14;;;;;;;18.17;6.88;;;4.80;99.90;;;;;;5110898;27;20253;-71
2022/01/08 10:07:41;;;;;;;16.00;7.13;;;4.80;99.90;;;;;;5110905;28;20176;-72
2022/01/08 10:10:13;;;;;;;21.45;6.95;;;4.70;99.90;;;;;;5113131;27;20665;-76
2022/01/08 10:12:41;;;;;;;13.27;7.40;;;4.70;99.90;;;;;;5114139;27;20646;-71
2022/01/08 10:17:53;;;;;;;17.67;7.78;;;4.70;99.90;;;;;;5112878;27;20196;-71
2022/01/08 10:20:35;;;;;;;20.55;7.13;;;4.70;99.90;;;;;;5111661;27;20185;-72
2022/01/08 10:23:29;;;;;;;17.38;8.30;;;4.70;99.90;;;;;;5093201;28;20209;-73
2022/01/08 10:26:00;;;;;;;22.10;8.43;;;4.70;99.90;;;;;;5111247;27;20193;-71
2022/01/08 10:28:43;;;;;;;16.05;7.97;;;4.70;99.90;;;;;;5108798;27;20276;-73
2022/01/08 10:31:17;;;;;;;16.48;8.35;;;4.70;99.90;;;;;;5109949;28;20189;-70
2022/01/08 10:33:48;;;;;;;16.77;8.90;;;4.70;99.90;;;;;;5106651;27;20534;-72
2022/01/08 10:36:14;;;;;;;23.60;9.35;;;4.70;99.90;;;;;;5110307;27;20200;-72
2022/01/08 10:38:41;;;;;;;19.58;8.88;;;4.80;99.90;;;;;;5103179;28;20196;-71
2022/01/08 10:41:13;;;;;;;19.45;8.98;;;4.80;99.90;;;;;;5141047;27;20262;-72
2022/01/08 10:43:39;;;;;;;21.90;10.23;;;4.80;99.90;;;;;;5107212;27;20197;-71
2022/01/08 10:46:15;;;;;;;20.45;10.35;;;4.80;99.90;;;;;;5107641;28;20197;-72
2022/01/08 10:48:44;;;;;;;21.55;9.18;;;4.90;99.90;;;;;;5108347;27;20587;-73
2022/01/08 10:51:27;;;;;;;20.05;10.27;;;4.90;99.90;;;;;;5109894;27;20193;-72
2022/01/08 10:54:19;;;;;;;19.10;11.77;;;4.90;99.90;;;;;;5106116;28;20416;-73
2022/01/08 10:56:48;;;;;;;21.50;11.73;;;5.40;99.90;;;;;;5104661;27;20470;-74
2022/01/08 10:59:23;;;;;;;20.77;11.23;;;5.90;99.90;;;;;;5108102;27;20400;-74
2022/01/08 11:01:53;;;;;;;15.65;9.80;;;6.10;99.90;;;;;;5104618;28;20208;-72
2022/01/08 11:04:40;;;;;;;21.20;10.73;;;5.90;99.90;;;;;;5107928;28;20559;-75
2022/01/08 11:07:29;;;;;;;13.98;9.48;;;5.70;99.90;;;;;;5112225;27;20209;-70
2022/01/08 11:10:00;;;;;;;22.35;10.48;;;5.60;99.90;;;;;;5105186;28;20221;-72
2022/01/08 11:12:35;;;;;;;19.27;9.95;;;5.50;99.90;;;;;;5107702;28;20189;-72
2022/01/08 11:17:43;;;;;;;17.70;9.18;;;5.40;99.90;;;;;;5121518;27;20205;-72
2022/01/08 11:20:13;;;;;;;20.48;9.05;;;5.40;99.90;;;;;;5141221;27;20200;-71
2022/01/08 11:22:41;;;;;;;17.23;9.23;;;5.40;99.90;;;;;;5108966;27;20261;-72
2022/01/08 11:25:30;;;;;;;20.20;8.65;;;5.30;99.90;;;;;;5108545;28;20301;-71
2022/01/08 11:28:05;;;;;;;16.98;8.27;;;5.30;99.90;;;;;;5105789;27;20255;-72
2022/01/08 11:30:38;;;;;;;15.23;8.35;;;5.30;99.90;;;;;;5106554;27;20192;-72
2022/01/08 11:33:10;;;;;;;19.00;7.70;;;5.30;99.90;;;;;;5110128;27;20200;-73
2022/01/08 11:35:37;;;;;;;14.98;7.50;;;5.30;99.90;;;;;;5105779;28;20186;-71
2022/01/08 11:38:07;;;;;;;16.23;6.38;;;5.30;99.90;;;;;;5115692;27;20200;-72
2022/01/08 11:40:36;;;;;;;15.68;7.95;;;5.20;99.90;;;;;;5103939;28;20202;-71
2022/01/08 11:43:04;;;;;;;11.32;7.07;;;5.20;99.90;;;;;;5107592;27;20995;-71
2022/01/08 11:45:36;;;;;;;17.85;8.48;;;5.20;99.90;;;;;;5107027;28;20181;-72
2022/01/08 11:48:05;;;;;;;16.95;7.50;;;5.20;99.90;;;;;;5109031;27;20645;-69
2022/01/08 11:50:33;;;;;;;18.50;7.85;;;5.20;99.90;;;;;;5107048;28;20612;-72
2022/01/08 11:53:19;;;;;;;16.50;7.72;;;5.20;99.90;;;;;;5109370;28;20238;-72
2022/01/08 11:55:51;;;;;;;19.83;8.50;;;5.20;99.90;;;;;;5106647;28;20189;-71
2022/01/08 11:58:30;;;;;;;15.13;7.18;;;5.20;99.90;;;;;;5108845;28;20178;-71
2022/01/08 12:01:12;;;;;;;20.45;8.25;;;5.20;99.90;;;;;;5108698;28;20187;-72
2022/01/08 12:03:50;;;;;;;16.50;7.07;;;5.20;99.90;;;;;;5105098;27;20201;-72
2022/01/08 12:06:18;;;;;;;19.25;6.97;;;5.20;99.90;;;;;;5099472;28;20193;-70
2022/01/08 12:08:59;;;;;;;15.20;6.32;;;5.20;99.90;;;;;;5107530;28;20582;-72
2022/01/08 12:11:30;;;;;;;17.30;6.65;;;5.20;99.90;;;;;;5108513;28;20193;-72
2022/01/08 12:14:08;;;;;;;10.30;4.85;;;5.20;99.90;;;;;;5110483;27;20183;-73
2022/01/08 12:16:39;;;;;;;14.65;5.88;;;5.20;99.90;;;;;;5115568;27;20181;-71
2022/01/08 12:19:06;;;;;;;11.65;5.07;;;5.20;99.90;;;;;;5108389;27;20273;-73
2022/01/08 12:21:40;;;;;;;12.75;5.45;;;5.10;99.90;;;;;;5111723;27;20297;-73
2022/01/08 12:24:32;;;;;;;12.38;5.35;;;5.10;99.90;;;;;;5110034;27;20219;-70
2022/01/08 12:27:00;;;;;;;13.75;6.43;;;5.10;99.90;;;;;;5107141;27;20192;-70
2022/01/08 12:29:37;;;;;;;16.30;5.43;;;5.00;99.90;;;;;;5113564;27;20189;-69
2022/01/08 12:32:24;;;;;;;12.82;5.50;;;5.00;99.90;;;;;;5111800;27;20189;-72
2022/01/08 12:34:51;;;;;;;14.77;6.20;;;5.00;99.90;;;;;;5107209;28;20210;-72
2022/01/08 12:37:18;;;;;;;12.45;6.00;;;4.90;99.90;;;;;;5106871;28;20192;-70
2022/01/08 12:39:44;;;;;;;11.82;5.57;;;4.90;99.90;;;;;;5109728;27;20528;-71
2022/01/08 12:42:26;;;;;;;11.38;6.07;;;4.90;99.90;;;;;;5108106;28;20270;-70
2022/01/08 12:45:11;;;;;;;18.75;6.45;;;4.90;99.90;;;;;;5107459;28;20650;-70
2022/01/08 12:47:43;;;;;;;14.38;6.05;;;4.90;99.90;;;;;;5113178;27;20666;-70
2022/01/08 12:50:28;;;;;;;13.15;6.10;;;4.80;99.90;;;;;;5109982;27;20280;-70
2022/01/08 12:53:06;;;;;;;12.60;5.75;;;4.80;99.90;;;;;;5115185;27;20183;-72
2022/01/08 12:55:53;;;;;;;15.05;7.15;;;4.80;99.90;;;;;;5104294;28;20412;-72
2022/01/08 12:58:23;;;;;;;17.42;7.95;;;5.10;99.90;;;;;;5107016;28;20474;-70
2022/01/08 13:01:16;;;;;;;15.00;6.63;;;5.40;99.90;;;;;;5082915;28;20413;-74
2022/01/08 13:03:50;;;;;;;14.32;6.90;;;5.50;99.90;;;;;;5102741;28;20510;-71
2022/01/08 13:06:17;;;;;;;14.25;7.43;;;5.60;99.90;;;;;;5105598;28;20430;-71
2022/01/08 13:08:46;;;;;;;14.73;7.20;;;5.60;99.90;;;;;;5104332;28;20448;-73
2022/01/08 13:11:32;;;;;;;13.52;7.43;;;5.60;99.90;;;;;;5105981;28;20959;-72
2022/01/08 13:14:04;;;;;;;14.27;8.20;;;5.70;99.90;;;;;;5105585;28;20412;-70
2022/01/08 13:16:42;;;;;;;16.30;8.55;;;5.70;99.90;;;;;;5111725;28;20432;-71
2022/01/08 13:19:14;;;;;;;15.57;8.57;;;5.70;99.90;;;;;;5103398;28;20429;-70